Time;durP1;ratioP1;P1;durP2;ratioP2;P2;SDS_P1;SDS_P2;PMS_P1;PMS_P2;Temp;Humidity;BMP_temperature;BMP_pressure;BME280_temperature;BME280_humidity;BME280_pressure;Samples;Min_cycle;Max_cycle;Signal;HPM_P1;HPM_P2
2022/01/26 00:00:04;;;;;;;27.30;14.02;;;;;;;3.40;81.61;102989.16;5092953;27;20093;-72
2022/01/26 00:08:02;;;;;;;55.20;15.32;;;;;;;3.43;82.96;103003.81;5095125;28;20043;-72
2022/01/26 00:10:28;;;;;;;52.42;14.63;;;;;;;3.41;81.97;103003.81;5087283;27;20035;-73
2022/01/26 00:12:55;;;;;;;39.72;16.30;;;;;;;3.45;81.28;102997.72;5089057;28;20047;-73
2022/01/26 00:15:22;;;;;;;36.75;17.13;;;;;;;3.42;81.30;103005.53;5097917;28;20130;-74
2022/01/26 00:17:52;;;;;;;41.33;13.55;;;;;;;3.41;81.09;102998.63;5097567;28;20094;-72
2022/01/26 00:20:23;;;;;;;27.00;14.77;;;;;;;3.42;80.94;102989.94;5101469;28;20075;-72
2022/01/26 00:23:05;;;;;;;29.27;14.48;;;;;;;3.47;80.10;102985.56;5099631;28;20039;-73
2022/01/26 00:25:42;;;;;;;28.80;13.82;;;;;;;3.46;80.46;102982.97;5098724;28;20036;-73
2022/01/26 00:28:31;;;;;;;37.30;15.52;;;;;;;3.46;81.88;102982.97;5090435;28;20056;-71
2022/01/26 00:39:10;;;;;;;29.20;15.02;;;;;;;3.40;79.87;102980.47;5112897;28;20053;-74
2022/01/26 00:41:40;;;;;;;28.17;14.65;;;;;;;3.43;79.55;102981.28;5123838;28;20053;-73
2022/01/26 00:44:08;;;;;;;27.00;9.98;;;;;;;3.45;79.81;102979.53;5095031;28;20040;-73
2022/01/26 00:46:37;;;;;;;34.25;14.43;;;;;;;3.43;80.29;102981.28;5091336;28;20044;-73
2022/01/26 00:49:03;;;;;;;34.42;11.80;;;;;;;3.41;80.70;102980.44;5089692;28;20108;-72
2022/01/26 00:51:30;;;;;;;31.73;13.95;;;;;;;3.40;81.26;102980.47;5097136;28;20046;-73
2022/01/26 00:54:02;;;;;;;40.47;13.48;;;;;;;3.41;81.22;102983.03;5092080;28;20059;-73
2022/01/26 00:56:29;;;;;;;27.00;12.57;;;;;;;3.40;81.02;102978.75;5096341;28;20130;-73
2022/01/26 00:58:57;;;;;;;26.50;11.65;;;;;;;3.40;81.55;102981.34;5093269;28;20047;-72
2022/01/26 01:01:24;;;;;;;61.47;14.65;;;;;;;3.42;81.31;102984.75;5091491;28;20135;-73
2022/01/26 01:03:50;;;;;;;37.28;13.40;;;;;;;3.45;81.40;102982.13;5088402;28;20040;-74
2022/01/26 01:06:25;;;;;;;30.35;15.80;;;;;;;3.40;81.96;102977.88;5089509;28;20085;-72
2022/01/26 01:08:52;;;;;;;32.05;13.40;;;;;;;3.42;81.62;102984.75;5089997;28;20056;-72
2022/01/26 01:11:19;;;;;;;27.83;15.95;;;;;;;3.42;82.02;102989.94;5091847;28;20036;-72
2022/01/26 01:13:47;;;;;;;31.58;14.93;;;;;;;3.42;82.23;102974.38;5090706;28;20105;-72
2022/01/26 01:16:20;;;;;;;32.92;14.65;;;;;;;3.41;82.13;102970.06;5091774;28;20072;-72
2022/01/26 01:18:53;;;;;;;36.20;17.80;;;;;;;3.36;82.86;102973.63;5084000;28;20072;-73
2022/01/26 01:24:47;;;;;;;34.97;14.07;;;;;;;3.41;82.58;102972.66;5086438;28;20082;-72
2022/01/26 01:30:11;;;;;;;33.03;15.30;;;;;;;3.38;82.25;102962.31;5079996;28;20059;-72
2022/01/26 01:32:53;;;;;;;25.85;12.20;;;;;;;3.37;81.79;102960.59;5097296;28;20123;-73
2022/01/26 01:35:20;;;;;;;21.92;10.48;;;;;;;3.36;81.98;102966.66;5100167;28;20558;-74
2022/01/26 01:37:47;;;;;;;34.85;13.40;;;;;;;3.35;81.88;102966.69;5090239;28;20033;-71
2022/01/26 01:40:14;;;;;;;32.00;16.10;;;;;;;3.33;81.92;102964.09;5102672;28;20059;-73
2022/01/26 01:42:42;;;;;;;25.67;12.05;;;;;;;3.33;82.14;102966.69;5096018;28;20048;-73
2022/01/26 01:45:09;;;;;;;24.30;11.77;;;;;;;3.29;80.59;102965.03;5102782;28;20041;-73
2022/01/26 01:47:36;;;;;;;24.33;11.95;;;;;;;3.29;81.38;102972.84;5096334;27;20047;-73
2022/01/26 01:50:09;;;;;;;30.25;10.88;;;;;;;3.26;80.48;102967.69;5094556;28;20051;-72
2022/01/26 01:52:36;;;;;;;32.80;13.57;;;;;;;3.22;81.35;102979.00;5097972;27;20124;-73
2022/01/26 01:55:04;;;;;;;28.25;11.98;;;;;;;3.20;80.64;102977.31;5093139;28;20059;-73
2022/01/26 01:57:31;;;;;;;42.40;14.65;;;;;;;3.18;80.62;102969.53;5101802;27;20146;-72
2022/01/26 01:59:58;;;;;;;29.15;13.65;;;;;;;3.22;80.86;102960.81;5091915;28;20229;-72
2022/01/26 02:02:24;;;;;;;51.80;16.08;;;;;;;3.22;81.23;102957.34;5090688;27;20048;-74
2022/01/26 02:04:51;;;;;;;56.10;18.17;;;;;;;3.17;81.09;102959.16;5095213;28;20039;-73
2022/01/26 02:07:20;;;;;;;34.10;10.98;;;;;;;3.19;80.58;102958.25;5094706;27;20047;-73
2022/01/26 02:09:47;;;;;;;29.90;13.85;;;;;;;3.19;81.40;102955.66;5061694;28;20048;-72
2022/01/26 02:12:16;;;;;;;25.73;10.93;;;;;;;3.21;80.81;102961.69;5100386;27;20055;-73
2022/01/26 02:14:48;;;;;;;43.30;15.20;;;;;;;3.14;80.23;102950.56;5102083;28;20040;-72
2022/01/26 02:17:26;;;;;;;24.08;12.65;;;;;;;3.10;80.46;102949.75;5106632;28;20104;-73
2022/01/26 02:53:26;;;;;;;64.68;15.00;;;;;;;3.04;81.33;102917.81;5056154;28;20041;-74
2022/01/26 02:55:58;;;;;;;41.38;13.50;;;;;;;3.09;81.17;102910.81;5050871;28;20118;-74
2022/01/26 03:01:40;;;;;;;21.70;11.75;;;;;;;3.06;80.79;102918.66;5014101;28;20056;-74
2022/01/26 03:04:14;;;;;;;42.97;13.57;;;;;;;3.05;80.26;102901.34;5044974;28;20049;-73
2022/01/26 03:06:49;;;;;;;29.02;9.30;;;;;;;3.08;80.74;102906.53;5056991;28;20045;-74
2022/01/26 03:09:23;;;;;;;43.97;11.90;;;;;;;3.07;81.23;102902.19;5060171;28;20048;-73
2022/01/26 03:11:50;;;;;;;9.48;8.48;;;;;;;3.08;80.96;102898.72;5056900;28;20040;-74
2022/01/26 03:14:27;;;;;;;36.83;11.82;;;;;;;3.02;81.17;102898.78;5069423;28;20045;-73
2022/01/26 03:16:58;;;;;;;31.58;14.55;;;;;;;3.02;80.73;102888.41;5069178;28;20048;-73
2022/01/26 03:19:33;;;;;;;29.92;14.40;;;;;;;3.01;81.81;102886.69;5081227;28;20029;-75
2022/01/26 03:30:50;;;;;;;24.08;11.90;;;;;;;2.97;81.58;102885.03;5045004;28;20052;-74
2022/01/26 03:33:48;;;;;;;40.42;14.05;;;;;;;2.98;82.01;102877.22;5043033;28;20045;-73
2022/01/26 03:36:14;;;;;;;35.47;13.05;;;;;;;2.96;81.84;102889.34;5041073;28;20064;-74
2022/01/26 03:38:44;;;;;;;35.80;16.15;;;;;;;2.95;81.46;102879.88;5041496;28;20064;-74
2022/01/26 03:41:18;;;;;;;24.15;12.60;;;;;;;2.96;81.96;102880.72;5039335;28;20055;-73
2022/01/26 03:43:46;;;;;;;29.40;14.52;;;;;;;2.90;81.35;102883.41;5035249;28;20075;-73
2022/01/26 03:46:12;;;;;;;34.17;10.57;;;;;;;2.91;81.46;102890.31;5041383;28;20045;-76
2022/01/26 03:48:39;;;;;;;26.10;14.35;;;;;;;2.89;81.88;102892.06;5039947;28;20136;-74
2022/01/26 03:51:06;;;;;;;25.27;12.27;;;;;;;2.90;82.00;102898.97;5041955;28;20051;-74
2022/01/26 03:53:33;;;;;;;32.15;13.98;;;;;;;2.91;82.03;102900.69;5041419;28;20145;-75
2022/01/26 03:55:59;;;;;;;29.80;15.52;;;;;;;2.90;81.69;102906.78;5039767;28;20049;-73
2022/01/26 03:58:28;;;;;;;29.48;16.25;;;;;;;2.91;81.98;102913.69;5043776;28;20045;-76
2022/01/26 04:00:56;;;;;;;46.33;16.17;;;;;;;2.89;82.14;102908.50;5039780;28;20037;-74
2022/01/26 04:03:23;;;;;;;22.65;10.73;;;;;;;2.95;81.87;102920.53;5042607;28;20045;-74
2022/01/26 04:05:50;;;;;;;49.35;11.32;;;;;;;2.97;81.60;102923.97;5041296;28;20111;-75
2022/01/26 04:08:23;;;;;;;35.40;13.32;;;;;;;2.94;81.81;102916.22;5045761;28;20079;-74
2022/01/26 04:11:02;;;;;;;38.85;13.07;;;;;;;2.93;81.37;102911.91;5052573;28;20072;-73
2022/01/26 04:13:29;;;;;;;46.45;14.68;;;;;;;2.91;81.94;102917.13;5052870;28;20049;-75
2022/01/26 04:15:57;;;;;;;23.92;11.50;;;;;;;2.91;82.22;102911.09;5045684;28;20048;-74
2022/01/26 04:18:29;;;;;;;28.67;14.25;;;;;;;2.93;81.27;102898.91;5056812;28;20041;-73
2022/01/26 04:21:00;;;;;;;19.27;10.27;;;;;;;2.96;81.53;102901.47;5040723;28;20102;-72
2022/01/26 04:23:35;;;;;;;27.03;13.83;;;;;;;2.95;81.73;102907.56;5042479;28;20052;-74
2022/01/26 04:26:01;;;;;;;30.77;13.18;;;;;;;2.90;82.40;102904.16;5040427;28;20049;-73
2022/01/26 04:28:29;;;;;;;32.72;13.07;;;;;;;2.93;81.99;102911.91;5040985;28;20039;-73
2022/01/26 04:30:57;;;;;;;41.53;14.32;;;;;;;2.92;82.71;102912.78;5040435;28;20037;-75
2022/01/26 04:33:24;;;;;;;28.85;11.35;;;;;;;2.93;82.68;102911.91;5038155;28;20123;-75
2022/01/26 04:35:50;;;;;;;52.83;14.52;;;;;;;2.89;82.65;102910.25;5039307;28;20037;-73
2022/01/26 04:38:22;;;;;;;18.73;5.38;;;;;;;2.92;81.40;102917.97;5041241;28;20052;-74
2022/01/26 04:41:00;;;;;;;29.73;10.25;;;;;;;2.85;82.36;102900.75;5041040;28;20049;-72
2022/01/26 04:43:31;;;;;;;34.50;10.85;;;;;;;2.82;82.29;102900.81;5039760;28;20458;-73
2022/01/26 04:45:59;;;;;;;52.72;14.00;;;;;;;2.76;82.46;102906.94;5041957;28;20103;-73
2022/01/26 04:48:26;;;;;;;24.05;8.80;;;;;;;2.81;82.47;102914.69;5041157;28;20048;-74
2022/01/26 04:50:53;;;;;;;31.52;9.07;;;;;;;2.77;82.26;102910.38;5040673;28;20036;-74
2022/01/26 04:53:20;;;;;;;34.28;11.77;;;;;;;2.74;82.11;102920.81;5040572;28;20115;-73
2022/01/26 04:55:47;;;;;;;52.42;13.73;;;;;;;2.74;82.62;102929.44;5040991;28;20048;-75
2022/01/26 04:58:13;;;;;;;45.53;11.85;;;;;;;2.76;82.61;102937.22;5039544;28;20056;-73
2022/01/26 05:00:40;;;;;;;57.97;12.45;;;;;;;2.76;83.06;102924.22;5040056;28;20041;-74
2022/01/26 05:03:08;;;;;;;34.42;11.50;;;;;;;2.73;82.20;102924.28;5055110;28;20049;-73
2022/01/26 05:05:35;;;;;;;45.55;12.95;;;;;;;2.73;82.30;102935.50;5041234;28;20076;-74
2022/01/26 05:08:01;;;;;;;22.17;6.70;;;;;;;2.73;82.59;102948.50;5039710;28;20065;-73
2022/01/26 05:10:28;;;;;;;30.33;12.48;;;;;;;2.77;82.60;102957.09;5039917;28;20037;-73
2022/01/26 05:12:55;;;;;;;16.08;8.55;;;;;;;2.75;82.34;102951.09;5040148;28;20049;-74
2022/01/26 05:15:23;;;;;;;36.85;13.35;;;;;;;2.71;82.42;102954.59;5038994;28;20075;-73
2022/01/26 05:17:50;;;;;;;37.35;12.50;;;;;;;2.72;82.68;102967.53;5053392;28;20119;-72
2022/01/26 05:20:18;;;;;;;31.77;11.85;;;;;;;2.71;82.59;102944.19;5054498;28;20427;-73
2022/01/26 05:22:45;;;;;;;45.72;12.60;;;;;;;2.71;81.83;102946.81;5039297;28;20045;-73
2022/01/26 05:25:12;;;;;;;49.70;12.15;;;;;;;2.74;82.19;102939.00;5039058;28;20037;-74
2022/01/26 05:27:39;;;;;;;18.90;9.57;;;;;;;2.73;82.13;102937.28;5038389;28;20076;-76
2022/01/26 05:30:07;;;;;;;25.90;12.65;;;;;;;2.70;82.07;102938.16;5054811;28;20049;-74
2022/01/26 05:32:34;;;;;;;18.92;10.93;;;;;;;2.72;82.49;102938.13;5042346;28;20132;-74
2022/01/26 05:35:01;;;;;;;43.55;13.05;;;;;;;2.74;82.41;102933.81;5039858;28;20526;-73
2022/01/26 05:37:29;;;;;;;36.92;8.90;;;;;;;2.75;81.79;102936.38;5041034;28;20044;-73
2022/01/26 05:39:55;;;;;;;44.60;13.77;;;;;;;2.70;82.88;102925.19;5043078;28;20655;-73
2022/01/26 05:42:22;;;;;;;36.97;9.90;;;;;;;2.68;82.83;102913.09;5038189;28;20072;-75
2022/01/26 05:44:49;;;;;;;32.17;15.15;;;;;;;2.62;83.77;102902.81;5041458;28;20130;-74
2022/01/26 05:47:19;;;;;;;44.88;13.93;;;;;;;2.54;84.54;102889.06;5042487;28;20045;-73
2022/01/26 05:49:46;;;;;;;42.53;11.68;;;;;;;2.52;84.48;102880.44;5045890;28;20049;-73
2022/01/26 05:52:12;;;;;;;34.28;12.20;;;;;;;2.50;84.26;102869.25;5052148;28;20108;-74
2022/01/26 05:54:40;;;;;;;50.85;14.45;;;;;;;2.50;85.01;102851.94;5059633;28;20085;-74
2022/01/26 05:57:07;;;;;;;35.30;10.75;;;;;;;2.54;84.62;102878.69;5060782;28;20044;-74
2022/01/26 05:59:36;;;;;;;27.13;10.52;;;;;;;2.58;84.16;102882.97;5045718;28;20068;-74
2022/01/26 06:02:04;;;;;;;33.22;12.80;;;;;;;2.62;84.81;102866.47;5046445;28;20055;-73
2022/01/26 06:04:31;;;;;;;30.85;11.35;;;;;;;2.61;84.83;102875.13;5046719;28;20029;-73
2022/01/26 06:06:58;;;;;;;32.58;13.63;;;;;;;2.66;84.93;102875.97;5050336;28;20098;-75
2022/01/26 06:09:25;;;;;;;38.15;15.30;;;;;;;2.65;85.03;102869.88;5051110;28;20127;-73
2022/01/26 06:11:53;;;;;;;37.70;14.95;;;;;;;2.71;84.51;102881.94;5044932;28;20076;-74
2022/01/26 06:14:20;;;;;;;37.72;14.55;;;;;;;2.68;84.73;102876.78;5038081;28;20194;-73
2022/01/26 06:16:47;;;;;;;34.55;15.18;;;;;;;2.61;85.67;102875.13;5040103;28;20060;-73
2022/01/26 06:19:13;;;;;;;59.38;18.08;;;;;;;2.60;85.37;102873.41;5036124;28;20094;-75
2022/01/26 06:21:40;;;;;;;28.17;11.63;;;;;;;2.54;85.76;102876.09;5040015;28;20102;-74
2022/01/26 06:24:07;;;;;;;44.35;14.85;;;;;;;2.54;86.00;102881.28;5035117;28;20045;-73
2022/01/26 06:26:34;;;;;;;28.60;10.32;;;;;;;2.56;85.77;102879.53;5042710;28;20070;-75
2022/01/26 06:29:02;;;;;;;46.28;16.45;;;;;;;2.61;85.30;102881.19;5041039;28;20056;-74
2022/01/26 06:31:29;;;;;;;52.15;16.40;;;;;;;2.64;85.03;102886.34;5039953;28;20091;-74
2022/01/26 06:33:57;;;;;;;34.38;11.48;;;;;;;2.65;84.22;102887.22;5039881;28;20045;-74
2022/01/26 06:36:24;;;;;;;28.95;10.82;;;;;;;2.69;84.38;102888.88;5037819;28;20041;-73
2022/01/26 06:38:51;;;;;;;24.02;9.02;;;;;;;2.65;84.31;102882.03;5029136;28;20064;-72
2022/01/26 06:41:23;;;;;;;59.95;19.20;;;;;;;2.61;84.73;102868.22;5038137;28;20359;-74
2022/01/26 06:43:56;;;;;;;50.83;15.95;;;;;;;2.62;84.90;102872.56;5025971;28;20038;-75
2022/01/26 06:46:30;;;;;;;35.08;13.18;;;;;;;2.59;85.29;102853.53;5038535;28;20052;-73
2022/01/26 06:49:28;;;;;;;39.28;11.85;;;;;;;2.65;84.90;102866.44;5040115;28;20089;-73
2022/01/26 06:51:49;;;;;;;28.33;11.25;;;;;;;2.62;85.18;102866.47;5038384;28;20056;-73
2022/01/26 06:54:16;;;;;;;35.47;13.70;;;;;;;2.60;85.65;102868.22;5039508;28;20037;-74
2022/01/26 06:56:42;;;;;;;26.05;13.48;;;;;;;2.62;85.27;102869.06;5037258;28;20060;-72
2022/01/26 06:59:09;;;;;;;30.45;14.20;;;;;;;2.62;85.09;102872.56;5039325;28;20037;-73
2022/01/26 07:01:37;;;;;;;33.35;12.10;;;;;;;2.61;85.50;102881.19;5036921;28;20067;-73
2022/01/26 07:04:04;;;;;;;26.80;12.38;;;;;;;2.67;85.15;102895.81;5040070;28;20049;-75
2022/01/26 07:06:31;;;;;;;30.17;11.55;;;;;;;2.65;85.33;102898.44;5035194;28;20045;-73
2022/01/26 07:08:58;;;;;;;39.70;15.05;;;;;;;2.63;85.42;102894.16;5042198;28;20045;-73
2022/01/26 07:11:25;;;;;;;32.50;12.32;;;;;;;2.59;85.87;102884.66;5041374;28;20138;-74
2022/01/26 07:13:53;;;;;;;24.95;14.32;;;;;;;2.62;86.00;102888.13;5043446;28;20138;-74
2022/01/26 07:21:50;;;;;;;31.75;12.65;;;;;;;2.59;86.09;102876.88;5036631;28;20057;-74
2022/01/26 07:24:16;;;;;;;23.63;10.60;;;;;;;2.60;86.38;102887.28;5041328;28;20040;-73
2022/01/26 07:26:44;;;;;;;24.02;10.52;;;;;;;2.63;86.91;102894.16;5041545;28;20045;-73
2022/01/26 07:29:12;;;;;;;38.85;14.52;;;;;;;2.63;87.01;102883.78;5042978;28;20048;-73
2022/01/26 07:31:42;;;;;;;37.53;16.00;;;;;;;2.62;86.85;102882.94;5043174;28;20055;-73
2022/01/26 07:34:10;;;;;;;21.23;9.48;;;;;;;2.62;86.91;102879.44;5042786;28;20112;-73
2022/01/26 07:36:37;;;;;;;22.10;9.55;;;;;;;2.62;87.37;102884.66;5031724;28;20042;-73
2022/01/26 07:39:07;;;;;;;25.65;12.30;;;;;;;2.63;87.39;102887.22;5042865;28;20041;-72
2022/01/26 07:41:35;;;;;;;30.80;12.38;;;;;;;2.64;87.71;102906.25;5042352;28;20041;-74
2022/01/26 07:44:01;;;;;;;43.30;13.13;;;;;;;2.68;87.30;102924.34;5037278;28;20099;-74
2022/01/26 07:46:28;;;;;;;20.60;11.55;;;;;;;2.69;87.28;102910.50;5042955;28;20049;-73
2022/01/26 07:48:55;;;;;;;37.08;14.65;;;;;;;2.73;87.34;102898.34;5041534;28;20047;-72
2022/01/26 07:51:23;;;;;;;41.17;13.88;;;;;;;2.71;87.49;102900.09;5043570;28;20053;-73
2022/01/26 07:53:49;;;;;;;19.75;11.30;;;;;;;2.75;87.47;102909.56;5032802;28;20041;-73
2022/01/26 07:56:17;;;;;;;21.92;10.85;;;;;;;2.76;87.85;102900.88;5041763;28;20040;-74
2022/01/26 07:58:47;;;;;;;44.55;13.40;;;;;;;2.77;87.69;102880.13;5042558;28;20038;-74
2022/01/26 08:01:14;;;;;;;31.27;13.15;;;;;;;2.73;88.12;102875.00;5053769;28;20072;-73
2022/01/26 08:03:42;;;;;;;29.83;11.02;;;;;;;2.74;87.95;102877.56;5049940;28;20052;-74
2022/01/26 08:06:14;;;;;;;33.42;13.82;;;;;;;2.78;87.85;102874.06;5044056;28;20071;-73
2022/01/26 08:08:42;;;;;;;21.65;11.00;;;;;;;2.81;87.88;102871.41;5041484;28;20060;-74
2022/01/26 08:11:08;;;;;;;41.63;13.93;;;;;;;2.76;88.19;102864.56;5055705;28;20052;-72
2022/01/26 08:13:35;;;;;;;33.67;11.00;;;;;;;2.85;88.49;102880.00;5058245;28;20165;-74
2022/01/26 08:16:01;;;;;;;27.65;10.45;;;;;;;2.86;88.35;102897.28;5040616;28;20048;-74
2022/01/26 08:18:28;;;;;;;32.92;14.85;;;;;;;2.91;87.98;102905.91;5043313;28;20275;-74
2022/01/26 08:21:01;;;;;;;34.72;13.80;;;;;;;2.92;87.84;102925.75;5040325;28;20049;-74
2022/01/26 08:23:28;;;;;;;37.28;13.13;;;;;;;2.92;87.86;102933.53;5044018;28;20048;-74
2022/01/26 08:25:56;;;;;;;30.33;12.27;;;;;;;2.94;87.65;102934.38;5044267;28;20973;-74
2022/01/26 08:28:27;;;;;;;23.70;12.88;;;;;;;2.93;87.92;102930.94;5056621;28;20068;-73
2022/01/26 08:30:54;;;;;;;37.50;12.77;;;;;;;2.97;88.05;102931.75;5058972;28;20057;-75
2022/01/26 08:33:20;;;;;;;43.53;15.75;;;;;;;2.97;88.27;102936.94;5060622;28;20037;-74
2022/01/26 08:35:47;;;;;;;35.50;12.20;;;;;;;3.04;87.98;102954.16;5041959;28;20134;-74
2022/01/26 08:38:14;;;;;;;36.10;12.43;;;;;;;3.03;88.15;102944.66;5040289;28;20072;-74
2022/01/26 08:40:43;;;;;;;33.03;14.05;;;;;;;3.06;87.80;102936.84;5040622;28;20059;-75
2022/01/26 08:43:12;;;;;;;49.15;12.25;;;;;;;3.04;87.66;102931.63;5040140;28;20047;-73
2022/01/26 08:45:38;;;;;;;25.45;11.48;;;;;;;3.04;87.43;102938.59;5038571;28;20554;-73
2022/01/26 08:48:06;;;;;;;48.83;11.85;;;;;;;3.04;87.79;102946.38;5052316;28;20052;-74
2022/01/26 08:50:32;;;;;;;36.80;16.20;;;;;;;3.02;87.76;102949.00;5040915;28;20044;-72
2022/01/26 08:52:59;;;;;;;24.73;11.32;;;;;;;3.07;87.92;102943.75;5039489;28;20045;-73
2022/01/26 08:55:26;;;;;;;30.45;14.05;;;;;;;3.04;88.25;102936.81;5054877;28;20442;-73
2022/01/26 08:57:52;;;;;;;40.95;13.38;;;;;;;3.05;88.07;102929.91;5040083;28;20053;-73
2022/01/26 09:00:21;;;;;;;33.75;14.75;;;;;;;3.08;88.38;102940.28;5041280;28;20090;-73
2022/01/26 09:02:50;;;;;;;50.75;13.20;;;;;;;3.06;88.54;102929.88;5037942;28;20040;-72
2022/01/26 09:05:16;;;;;;;53.05;13.25;;;;;;;3.09;88.24;102952.34;5039451;28;20045;-73
2022/01/26 09:07:45;;;;;;;23.25;13.40;;;;;;;3.05;88.59;102953.28;5041146;28;20487;-72
2022/01/26 09:10:12;;;;;;;23.10;4.25;;;;;;;3.07;88.48;102954.97;5038735;28;20586;-73
2022/01/26 09:12:42;;;;;;;26.17;12.43;;;;;;;3.08;89.24;102956.69;5036112;28;20124;-74
2022/01/26 09:17:44;;;;;;;26.10;12.65;;;;;;;3.10;89.48;102973.13;5129473;27;20168;-74
2022/01/26 09:20:12;;;;;;;29.58;10.52;;;;;;;3.11;89.18;102963.56;5106967;27;20043;-73
2022/01/26 09:22:38;;;;;;;32.95;13.07;;;;;;;3.09;89.70;102950.63;5112752;27;20054;-74
2022/01/26 09:25:06;;;;;;;31.20;12.32;;;;;;;3.06;89.58;102953.25;5107722;27;20536;-74
2022/01/26 09:27:34;;;;;;;54.55;13.73;;;;;;;3.09;89.58;102957.53;5115727;27;20049;-73
2022/01/26 09:30:01;;;;;;;27.52;10.30;;;;;;;3.04;89.90;102946.38;5110167;27;20055;-73
2022/01/26 09:32:27;;;;;;;31.83;9.98;;;;;;;3.05;90.17;102941.16;5115565;27;20126;-73
2022/01/26 09:34:55;;;;;;;21.45;13.15;;;;;;;3.09;90.26;102947.16;5115212;27;20051;-73
2022/01/26 09:37:23;;;;;;;30.42;12.80;;;;;;;3.10;90.49;102948.88;5106760;27;20047;-73
2022/01/26 09:39:51;;;;;;;29.58;8.55;;;;;;;3.12;90.39;102947.13;5111133;27;20044;-73
2022/01/26 09:42:18;;;;;;;29.90;9.77;;;;;;;3.12;90.38;102957.50;5110536;27;20470;-73
2022/01/26 09:44:45;;;;;;;46.40;16.20;;;;;;;3.12;90.44;102962.69;5118117;27;20035;-72
2022/01/26 09:47:12;;;;;;;38.92;11.85;;;;;;;3.12;90.90;102960.09;5104401;27;20047;-73
2022/01/26 09:49:38;;;;;;;45.30;14.07;;;;;;;3.14;90.47;102960.94;5115736;28;20039;-72
2022/01/26 09:52:14;;;;;;;39.10;10.15;;;;;;;3.11;91.20;102955.78;5110291;28;20047;-73
2022/01/26 09:54:41;;;;;;;19.45;6.95;;;;;;;3.12;90.91;102950.56;5121571;28;20065;-73
2022/01/26 09:57:08;;;;;;;24.45;11.02;;;;;;;3.12;90.85;102945.38;5115182;27;20071;-74
2022/01/26 09:59:35;;;;;;;30.75;12.82;;;;;;;3.09;91.04;102937.66;5121741;27;20031;-74
2022/01/26 10:02:01;;;;;;;39.25;11.60;;;;;;;3.17;91.10;102928.84;5110195;27;20071;-73
2022/01/26 10:04:32;;;;;;;46.20;13.48;;;;;;;3.18;91.42;102932.31;5113315;27;20138;-73
2022/01/26 10:07:01;;;;;;;29.35;12.70;;;;;;;3.20;90.78;102926.22;5106646;27;20051;-73
2022/01/26 10:09:46;;;;;;;22.95;10.68;;;;;;;3.25;91.03;102918.38;5113778;27;20090;-74
2022/01/26 10:17:45;;;;;;;21.50;10.38;;;;;;;3.32;90.81;102920.81;5104642;27;20040;-73
2022/01/26 10:20:23;;;;;;;35.15;14.15;;;;;;;3.22;90.72;102924.47;5104385;28;20075;-73
2022/01/26 10:22:50;;;;;;;25.88;12.85;;;;;;;3.27;90.82;102920.06;5104647;28;20032;-73
2022/01/26 10:25:20;;;;;;;21.58;11.93;;;;;;;3.22;90.72;102914.09;5105387;27;20040;-74
2022/01/26 10:27:50;;;;;;;31.23;13.68;;;;;;;3.23;91.38;102915.81;5097800;27;20123;-74
2022/01/26 10:30:19;;;;;;;33.88;12.75;;;;;;;3.29;91.52;102917.41;5099503;28;20042;-75
2022/01/26 10:32:47;;;;;;;19.88;9.93;;;;;;;3.29;91.21;102920.91;5100557;28;20073;-75
2022/01/26 10:35:15;;;;;;;43.20;13.68;;;;;;;3.36;91.18;102935.50;5096382;28;20122;-72
2022/01/26 10:37:49;;;;;;;48.22;14.68;;;;;;;3.36;91.08;102932.06;5101615;28;20076;-74
2022/01/26 10:40:24;;;;;;;28.20;11.55;;;;;;;3.40;90.79;102926.78;5095152;28;20140;-73
2022/01/26 10:42:56;;;;;;;21.02;12.10;;;;;;;3.38;90.79;102931.16;5088148;28;20063;-74
2022/01/26 10:45:44;;;;;;;42.30;14.25;;;;;;;3.35;91.18;102923.38;5097403;27;20039;-73
2022/01/26 10:48:20;;;;;;;39.92;13.55;;;;;;;3.39;90.98;102937.19;5088847;28;20048;-74
2022/01/26 10:53:37;;;;;;;22.85;10.35;;;;;;;3.41;90.81;102948.41;5079625;28;20046;-73
2022/01/26 10:56:06;;;;;;;40.00;11.50;;;;;;;3.41;90.90;102954.47;5093258;28;20490;-73
2022/01/26 10:58:33;;;;;;;37.63;12.90;;;;;;;3.43;90.53;102950.09;5089901;28;20044;-74
2022/01/26 11:00:59;;;;;;;25.77;10.93;;;;;;;3.39;90.73;102965.75;5092220;27;20113;-74
2022/01/26 11:03:26;;;;;;;25.60;9.07;;;;;;;3.36;91.40;102969.28;5103487;27;20046;-74
2022/01/26 11:05:53;;;;;;;38.88;13.20;;;;;;;3.39;91.34;102952.78;5117173;28;20028;-73
2022/01/26 11:08:21;;;;;;;28.13;9.65;;;;;;;3.45;91.46;102956.16;5126504;28;20050;-74
2022/01/26 11:10:48;;;;;;;33.35;12.70;;;;;;;3.41;91.47;102949.28;5113919;28;20043;-72
2022/01/26 11:13:26;;;;;;;24.95;11.00;;;;;;;3.43;91.47;102949.28;5106900;28;20036;-73
2022/01/26 11:15:53;;;;;;;40.60;10.43;;;;;;;3.38;91.46;102944.13;5093887;28;20131;-73
2022/01/26 11:18:22;;;;;;;35.08;12.02;;;;;;;3.39;91.40;102939.78;5096847;28;20138;-74
2022/01/26 11:20:50;;;;;;;26.65;10.18;;;;;;;3.48;92.05;102943.13;5090888;28;20128;-74
2022/01/26 11:23:19;;;;;;;29.38;13.85;;;;;;;3.58;90.92;102939.47;5098123;27;20122;-73
2022/01/26 11:25:48;;;;;;;27.45;10.43;;;;;;;3.70;90.17;102936.69;5090973;28;20046;-73
2022/01/26 11:28:19;;;;;;;29.55;10.55;;;;;;;3.76;90.24;102933.13;5097119;28;20085;-73
2022/01/26 11:30:48;;;;;;;31.88;12.43;;;;;;;3.82;89.86;102939.06;5093737;28;20044;-73
2022/01/26 11:33:18;;;;;;;12.85;6.72;;;;;;;3.72;89.40;102936.66;5094385;27;20139;-73
2022/01/26 11:35:47;;;;;;;24.17;9.00;;;;;;;3.73;89.41;102935.78;5087476;28;20047;-73
2022/01/26 11:38:40;;;;;;;27.95;10.82;;;;;;;3.72;89.29;102940.13;5092323;28;20052;-73
2022/01/26 11:46:56;;;;;;;26.50;10.32;;;;;;;3.78;89.19;102929.63;5096523;28;20044;-72
2022/01/26 11:49:34;;;;;;;15.55;8.80;;;;;;;3.83;89.62;102934.75;5105389;28;20092;-73
2022/01/26 11:52:01;;;;;;;38.93;12.30;;;;;;;3.81;89.85;102923.50;5098292;28;20036;-73
2022/01/26 11:54:29;;;;;;;38.83;10.77;;;;;;;3.87;89.43;102919.06;5103600;28;20314;-74
2022/01/26 11:57:06;;;;;;;33.33;13.05;;;;;;;3.84;89.86;102924.31;5089162;28;20091;-74
2022/01/26 11:59:35;;;;;;;19.10;9.57;;;;;;;3.87;90.36;102929.47;5089365;28;20047;-73
2022/01/26 12:02:09;;;;;;;18.58;9.75;;;;;;;3.87;90.09;102913.00;5095651;27;20032;-74
2022/01/26 12:04:38;;;;;;;23.77;10.45;;;;;;;3.88;89.99;102900.00;5100699;28;20047;-74
2022/01/26 12:07:11;;;;;;;24.55;11.20;;;;;;;3.95;90.13;102902.44;5091228;28;20052;-74
2022/01/26 12:09:40;;;;;;;22.95;10.95;;;;;;;3.92;90.66;102906.84;5098863;28;20104;-74
2022/01/26 12:12:09;;;;;;;26.35;11.13;;;;;;;3.95;90.25;102905.03;5090442;28;20039;-74
2022/01/26 12:14:35;;;;;;;25.38;10.20;;;;;;;3.92;90.51;102893.84;5099308;27;20046;-72
2022/01/26 12:17:09;;;;;;;18.10;9.75;;;;;;;3.92;90.09;102893.84;5088607;28;20155;-73
2022/01/26 12:19:48;;;;;;;15.93;11.18;;;;;;;3.92;90.47;102887.81;5101979;27;20047;-73
2022/01/26 12:36:36;;;;;;;22.90;11.18;;;;;;;3.91;91.34;102886.94;5078807;28;20139;-73
2022/01/26 12:39:10;;;;;;;15.07;8.32;;;;;;;3.94;91.08;102889.47;5093193;28;20048;-74
2022/01/26 12:41:38;;;;;;;40.00;8.48;;;;;;;3.96;90.93;102891.16;5089786;28;20039;-73
2022/01/26 12:44:08;;;;;;;26.60;9.85;;;;;;;4.02;91.53;102901.44;5095047;27;20036;-75
2022/01/26 12:46:36;;;;;;;26.13;10.52;;;;;;;4.12;90.55;102896.94;5088153;28;20080;-74
2022/01/26 12:49:08;;;;;;;24.23;8.63;;;;;;;4.08;90.13;102895.28;5089489;27;20060;-74
2022/01/26 12:51:42;;;;;;;21.85;9.00;;;;;;;4.06;90.81;102899.66;5096415;28;20043;-74
2022/01/26 12:54:08;;;;;;;34.15;10.73;;;;;;;3.99;90.84;102908.44;5094434;28;20036;-73
2022/01/26 12:56:35;;;;;;;26.08;8.85;;;;;;;3.92;91.20;102901.66;5090571;28;20055;-73
2022/01/26 12:59:05;;;;;;;28.08;10.88;;;;;;;3.89;91.70;102898.25;5084685;28;20048;-74
2022/01/26 13:01:32;;;;;;;22.42;10.13;;;;;;;3.85;92.04;102894.84;5089458;28;20115;-74
2022/01/26 13:04:00;;;;;;;24.75;10.57;;;;;;;3.89;91.80;102893.91;5098505;28;20039;-74
2022/01/26 13:06:29;;;;;;;20.55;11.98;;;;;;;3.87;91.37;102885.28;5091037;28;20040;-75
2022/01/26 13:08:57;;;;;;;29.98;12.93;;;;;;;3.92;91.61;102878.25;5094886;28;20047;-73